createdAt,value
2018-02-27T00:00:23.215Z,-3.07
2018-02-27T00:02:55.072Z,-3.07
2018-02-27T00:05:23.358Z,-3.15
2018-02-27T00:07:57.056Z,-3.11
2018-02-27T00:10:25.539Z,-3.08
2018-02-27T00:12:55.114Z,-3.13
2018-02-27T00:15:23.584Z,-3.08
2018-02-27T00:17:55.613Z,-3.16
2018-02-27T00:20:24.058Z,-3.06
2018-02-27T00:22:54.856Z,-3.12
2018-02-27T00:25:23.133Z,-3.12
2018-02-27T00:27:54.789Z,-3.12
2018-02-27T00:30:23.061Z,-3.05
2018-02-27T00:32:54.860Z,-3.01
2018-02-27T00:35:23.717Z,-3.18
2018-02-27T00:37:55.678Z,-3.22
2018-02-27T00:40:24.161Z,-3.17
2018-02-27T00:42:55.785Z,-3.20
2018-02-27T00:45:24.387Z,-2.99
2018-02-27T00:47:54.864Z,-2.89
2018-02-27T00:50:23.970Z,-2.80
2018-02-27T00:52:55.719Z,-2.75
2018-02-27T00:55:24.010Z,-2.76
2018-02-27T00:57:55.765Z,-2.78
2018-02-27T01:00:24.074Z,-2.82
2018-02-27T01:02:55.573Z,-2.90
2018-02-27T01:05:23.870Z,-2.77
2018-02-27T01:07:55.181Z,-2.76
2018-02-27T01:10:23.762Z,-2.75
2018-02-27T01:12:55.545Z,-2.82
2018-02-27T01:15:23.848Z,-2.81
2018-02-27T01:17:55.974Z,-2.86
2018-02-27T01:20:24.276Z,-2.85
2018-02-27T01:22:56.543Z,-2.94
2018-02-27T01:25:25.384Z,-2.89
2018-02-27T01:27:54.988Z,-3.08
2018-02-27T01:30:23.382Z,-3.08
2018-02-27T01:32:55.167Z,-3.11
2018-02-27T01:35:24.508Z,-3.16
2018-02-27T01:37:56.038Z,-3.36
2018-02-27T01:40:24.349Z,-3.47
2018-02-27T01:42:52.726Z,-3.38
2018-02-27T01:45:21.002Z,-3.31
2018-02-27T01:47:50.034Z,-3.37
2018-02-27T01:50:18.568Z,-3.44
2018-02-27T01:52:46.841Z,-3.47
2018-02-27T01:55:15.132Z,-3.40
2018-02-27T01:57:43.417Z,-3.53
2018-02-27T02:00:11.738Z,-3.46
2018-02-27T02:02:40.033Z,-3.54
2018-02-27T02:05:08.302Z,-3.63
2018-02-27T02:07:36.614Z,-3.67
2018-02-27T02:10:06.080Z,-3.73
2018-02-27T02:12:34.386Z,-3.91
2018-02-27T02:15:05.736Z,-3.90
2018-02-27T02:17:34.162Z,-3.90
2018-02-27T02:20:09.349Z,-3.94
2018-02-27T02:22:37.660Z,-3.97
2018-02-27T02:25:05.984Z,-4.09
2018-02-27T02:27:34.264Z,-4.10
2018-02-27T02:30:09.588Z,-4.09
2018-02-27T02:32:37.887Z,-4.11
2018-02-27T02:35:06.340Z,-4.19
2018-02-27T02:37:34.625Z,-4.22
2018-02-27T02:40:06.098Z,-4.21
2018-02-27T02:42:34.361Z,-4.31
2018-02-27T02:45:07.615Z,-4.29
2018-02-27T02:47:35.906Z,-4.40
2018-02-27T02:50:05.952Z,-4.35
2018-02-27T02:52:34.275Z,-4.40
2018-02-27T02:55:09.300Z,-4.42
2018-02-27T02:57:42.016Z,-4.43
2018-02-27T03:00:10.330Z,-4.46
2018-02-27T03:02:38.856Z,-4.50
2018-02-27T03:05:07.169Z,-4.55
2018-02-27T03:07:35.454Z,-4.67
2018-02-27T03:10:07.177Z,-4.58
2018-02-27T03:12:35.650Z,-4.55
2018-02-27T03:15:07.769Z,-4.55
2018-02-27T03:17:36.069Z,-4.57
2018-02-27T03:20:05.917Z,-4.56
2018-02-27T03:22:34.743Z,-4.60
2018-02-27T03:25:05.941Z,-4.66
2018-02-27T03:27:34.265Z,-4.71
2018-02-27T03:30:09.239Z,-4.75
2018-02-27T03:32:37.529Z,-4.70
2018-02-27T03:35:06.826Z,-4.73
2018-02-27T03:37:35.309Z,-4.71
2018-02-27T03:40:08.811Z,-4.64
2018-02-27T03:42:37.865Z,-4.68
2018-02-27T03:45:06.469Z,-4.73
2018-02-27T03:47:34.764Z,-4.86
2018-02-27T03:50:06.269Z,-5.03
2018-02-27T03:52:34.585Z,-4.86
2018-02-27T03:55:06.506Z,-4.88
2018-02-27T03:57:35.340Z,-4.76
2018-02-27T04:00:06.750Z,-4.88
2018-02-27T04:02:35.243Z,-4.80
2018-02-27T04:05:06.989Z,-4.83
2018-02-27T04:07:35.294Z,-4.83
2018-02-27T04:10:07.326Z,-4.91
2018-02-27T04:12:35.611Z,-4.90
2018-02-27T04:15:06.885Z,-4.91
2018-02-27T04:17:35.161Z,-4.94
2018-02-27T04:20:07.294Z,-4.97
2018-02-27T04:22:39.620Z,-4.95
2018-02-27T04:25:08.088Z,-5.19
2018-02-27T04:27:36.356Z,-5.27
2018-02-27T04:30:06.059Z,-5.21
2018-02-27T04:32:34.357Z,-5.26
2018-02-27T04:35:09.602Z,-5.18
2018-02-27T04:37:38.742Z,-5.17
2018-02-27T04:40:07.045Z,-5.14
2018-02-27T04:42:35.322Z,-5.18
2018-02-27T04:45:07.020Z,-5.20
2018-02-27T04:47:35.293Z,-5.26
2018-02-27T04:50:07.317Z,-5.27
2018-02-27T04:52:35.681Z,-5.22
2018-02-27T04:55:07.766Z,-5.28
2018-02-27T04:57:36.068Z,-5.40
2018-02-27T05:00:09.233Z,-5.46
2018-02-27T05:02:37.522Z,-5.47
2018-02-27T05:05:06.962Z,-5.53
2018-02-27T05:07:35.248Z,-5.42
2018-02-27T05:10:06.944Z,-5.62
2018-02-27T05:12:35.262Z,-5.70
2018-02-27T05:15:07.183Z,-5.77
2018-02-27T05:17:35.478Z,-5.90
2018-02-27T05:20:06.314Z,-5.84
2018-02-27T05:22:34.609Z,-5.94
2018-02-27T05:25:09.634Z,-5.80
2018-02-27T05:27:37.957Z,-5.95
2018-02-27T05:30:09.945Z,-6.10
2018-02-27T05:32:38.981Z,-6.04
2018-02-27T05:35:07.676Z,-6.12
2018-02-27T05:37:36.549Z,-6.11
2018-02-27T05:40:07.951Z,-6.19
2018-02-27T05:42:36.246Z,-6.17
2018-02-27T05:45:06.221Z,-6.10
2018-02-27T05:47:34.490Z,-6.15
2018-02-27T05:50:05.851Z,-6.01
2018-02-27T05:52:34.347Z,-6.11
2018-02-27T05:55:06.705Z,-5.91
2018-02-27T05:57:35.008Z,-5.98
2018-02-27T06:00:06.288Z,-6.11
2018-02-27T06:02:34.973Z,-6.08
2018-02-27T06:05:07.215Z,-6.18
2018-02-27T06:07:35.545Z,-6.11
2018-02-27T06:10:07.287Z,-6.09
2018-02-27T06:12:35.780Z,-6.25
2018-02-27T06:15:07.789Z,-6.27
2018-02-27T06:17:37.018Z,-6.25
2018-02-27T06:20:06.307Z,-6.26
2018-02-27T06:22:34.545Z,-6.20
2018-02-27T06:25:09.602Z,-6.29
2018-02-27T06:27:37.868Z,-6.31
2018-02-27T06:30:06.416Z,-6.35
2018-02-27T06:32:35.191Z,-6.38
2018-02-27T06:35:07.345Z,-6.38
2018-02-27T06:37:35.646Z,-6.50
2018-02-27T06:40:06.173Z,-6.26
2018-02-27T06:42:34.449Z,-6.32
2018-02-27T06:45:06.616Z,-6.25
2018-02-27T06:47:34.949Z,-6.28
2018-02-27T06:50:06.282Z,-6.21
2018-02-27T06:52:34.728Z,-6.11
2018-02-27T06:55:09.730Z,-6.09
2018-02-27T06:57:38.042Z,-6.13
2018-02-27T07:00:06.334Z,-5.87
2018-02-27T07:02:35.071Z,-5.09
2018-02-27T07:05:07.312Z,-4.39
2018-02-27T07:07:35.681Z,-3.78
2018-02-27T07:10:07.411Z,-4.03
2018-02-27T07:12:35.725Z,-4.06
2018-02-27T07:15:06.244Z,-4.08
2018-02-27T07:17:34.532Z,-4.12
2018-02-27T07:20:09.800Z,-4.78
2018-02-27T07:22:38.092Z,-4.41
2018-02-27T07:25:06.390Z,-4.85
2018-02-27T07:27:34.689Z,-3.92
2018-02-27T07:30:09.755Z,-4.26
2018-02-27T07:32:38.046Z,-4.45
2018-02-27T07:35:06.317Z,-4.37
2018-02-27T07:37:34.643Z,-4.13
2018-02-27T07:40:09.677Z,-4.45
2018-02-27T07:42:37.963Z,-4.65
2018-02-27T07:45:06.445Z,-4.65
2018-02-27T07:47:34.728Z,-4.73
2018-02-27T07:50:09.986Z,-4.65
2018-02-27T07:52:38.594Z,-4.73
2018-02-27T07:55:06.894Z,-4.39
2018-02-27T07:57:35.357Z,-4.61
2018-02-27T08:00:07.505Z,-4.69
2018-02-27T08:02:35.797Z,-4.30
2018-02-27T08:05:07.173Z,-4.06
2018-02-27T08:07:35.494Z,-3.76
2018-02-27T08:10:07.432Z,-3.73
2018-02-27T08:12:35.652Z,-3.25
2018-02-27T08:15:06.315Z,-3.01
2018-02-27T08:17:35.648Z,-3.38
2018-02-27T08:20:07.506Z,-3.45
2018-02-27T08:22:35.797Z,-3.35
2018-02-27T08:25:07.435Z,-3.11
2018-02-27T08:27:35.721Z,-3.09
2018-02-27T08:30:07.844Z,-3.33
2018-02-27T08:32:36.763Z,-3.26
2018-02-27T08:35:08.322Z,-3.34
2018-02-27T08:37:36.624Z,-3.20
2018-02-27T08:40:06.805Z,-2.66
2018-02-27T08:42:35.089Z,-2.26
2018-02-27T08:45:07.008Z,-1.59
2018-02-27T08:47:35.321Z,-0.50
2018-02-27T08:50:07.765Z,-0.74
2018-02-27T08:52:36.142Z,-0.43
2018-02-27T08:55:07.860Z,-1.03
2018-02-27T08:57:36.137Z,-1.42
2018-02-27T09:00:08.249Z,-1.26
2018-02-27T09:02:36.816Z,-1.32
2018-02-27T09:05:06.745Z,-0.55
2018-02-27T09:07:35.711Z,-0.14
2018-02-27T09:10:07.214Z,-0.12
2018-02-27T09:12:35.494Z,0.59
2018-02-27T09:15:07.411Z,0.71
2018-02-27T09:17:36.025Z,0.15
2018-02-27T09:20:07.885Z,-0.57
2018-02-27T09:22:36.160Z,-0.57
2018-02-27T09:25:07.510Z,0.24
2018-02-27T09:27:35.801Z,-0.10
2018-02-27T09:30:08.668Z,-0.17
2018-02-27T09:32:36.955Z,-0.60
2018-02-27T09:35:06.443Z,0.08
2018-02-27T09:37:34.733Z,0.26
2018-02-27T09:40:09.964Z,1.35
2018-02-27T09:42:38.306Z,0.90
2018-02-27T09:45:06.618Z,0.33
2018-02-27T09:47:34.903Z,0.13
2018-02-27T09:50:07.068Z,-0.60
2018-02-27T09:52:35.356Z,0.10
2018-02-27T09:55:06.761Z,-0.73
2018-02-27T09:57:35.080Z,-0.36
2018-02-27T10:00:06.573Z,0.42
2018-02-27T10:02:34.826Z,1.73
2018-02-27T10:05:09.819Z,1.36
2018-02-27T10:07:38.221Z,1.48
2018-02-27T10:10:07.649Z,1.15
2018-02-27T10:12:35.950Z,2.51
2018-02-27T10:15:07.154Z,0.95
2018-02-27T10:17:35.463Z,1.85
2018-02-27T10:20:06.453Z,0.89
2018-02-27T10:22:34.756Z,0.94
2018-02-27T10:25:09.829Z,1.80
2018-02-27T10:27:38.370Z,0.99
2018-02-27T10:30:06.930Z,1.23
2018-02-27T10:32:35.197Z,0.75
2018-02-27T10:35:06.445Z,0.97
2018-02-27T10:37:35.015Z,1.88
2018-02-27T10:40:07.232Z,2.73
2018-02-27T10:42:35.526Z,2.42
2018-02-27T10:45:07.640Z,2.96
2018-02-27T10:47:36.033Z,1.74
2018-02-27T10:50:08.066Z,1.79
2018-02-27T10:52:36.421Z,1.78
2018-02-27T10:55:06.563Z,1.85
2018-02-27T10:57:34.843Z,2.92
2018-02-27T11:00:10.016Z,2.05
2018-02-27T11:02:38.357Z,2.50
2018-02-27T11:05:07.691Z,3.39
2018-02-27T11:07:35.964Z,3.66
2018-02-27T11:10:07.271Z,2.82
2018-02-27T11:12:35.597Z,2.97
2018-02-27T11:15:07.728Z,3.01
2018-02-27T11:17:36.053Z,3.24
2018-02-27T11:20:08.212Z,3.93
2018-02-27T11:22:36.487Z,4.57
2018-02-27T11:25:07.015Z,4.68
2018-02-27T11:27:35.371Z,4.34
2018-02-27T11:30:07.303Z,4.73
2018-02-27T11:32:35.614Z,5.41
2018-02-27T11:35:06.516Z,5.06
2018-02-27T11:37:34.824Z,5.15
2018-02-27T11:40:06.553Z,3.98
2018-02-27T11:42:34.891Z,4.66
2018-02-27T11:45:07.579Z,6.06
2018-02-27T11:47:35.884Z,5.40
2018-02-27T11:50:05.981Z,4.54
2018-02-27T11:52:34.274Z,4.92
2018-02-27T11:55:05.712Z,4.35
2018-02-27T11:57:34.000Z,5.45
2018-02-27T12:00:09.168Z,4.24
2018-02-27T12:02:37.449Z,5.28
2018-02-27T12:05:05.770Z,3.62
2018-02-27T12:07:34.057Z,5.04
2018-02-27T12:10:09.087Z,5.19
2018-02-27T12:12:38.589Z,5.46
2018-02-27T12:15:06.863Z,5.79
2018-02-27T12:17:35.186Z,4.61
2018-02-27T12:20:07.814Z,5.98
2018-02-27T12:22:36.092Z,5.22
2018-02-27T12:25:07.390Z,4.31
2018-02-27T12:27:36.055Z,5.25
2018-02-27T12:30:06.182Z,6.22
2018-02-27T12:32:34.453Z,6.68
2018-02-27T12:35:06.379Z,7.06
2018-02-27T12:37:34.650Z,5.85
2018-02-27T12:40:05.575Z,5.11
2018-02-27T12:42:33.870Z,4.21
2018-02-27T12:45:09.091Z,5.31
2018-02-27T12:47:37.398Z,4.00
2018-02-27T12:50:05.666Z,4.28
2018-02-27T12:52:33.949Z,4.23
2018-02-27T12:55:09.126Z,5.53
2018-02-27T12:57:37.413Z,5.53
2018-02-27T13:00:05.675Z,6.31
2018-02-27T13:02:33.970Z,5.85
2018-02-27T13:05:09.003Z,6.88
2018-02-27T13:07:37.289Z,5.59
2018-02-27T13:10:06.473Z,5.22
2018-02-27T13:12:34.772Z,6.60
2018-02-27T13:15:05.651Z,6.61
2018-02-27T13:17:34.097Z,5.10
2018-02-27T13:20:05.497Z,5.23
2018-02-27T13:22:33.796Z,5.27
2018-02-27T13:25:05.205Z,6.14
2018-02-27T13:27:33.496Z,5.62
2018-02-27T13:30:06.841Z,5.81
2018-02-27T13:32:35.113Z,5.81
2018-02-27T13:35:06.719Z,5.27
2018-02-27T13:37:35.285Z,4.35
2018-02-27T13:40:06.820Z,3.45
2018-02-27T13:42:35.082Z,3.26
2018-02-27T13:45:07.205Z,2.63
2018-02-27T13:47:35.495Z,1.87
2018-02-27T13:50:06.740Z,1.49
2018-02-27T13:52:35.017Z,1.48
2018-02-27T13:55:07.166Z,1.97
2018-02-27T13:57:35.450Z,1.52
2018-02-27T14:00:06.648Z,1.39
2018-02-27T14:02:34.939Z,1.61
2018-02-27T14:05:06.845Z,1.47
2018-02-27T14:07:35.136Z,1.31
2018-02-27T14:10:06.770Z,1.46
2018-02-27T14:12:36.404Z,1.66
2018-02-27T14:15:06.318Z,1.48
2018-02-27T14:17:34.608Z,1.47
2018-02-27T14:20:06.479Z,1.68
2018-02-27T14:22:35.004Z,1.67
2018-02-27T14:25:07.818Z,1.43
2018-02-27T14:27:36.092Z,1.40
2018-02-27T14:30:11.514Z,1.35
2018-02-27T14:32:39.819Z,0.92
2018-02-27T14:35:08.185Z,0.95
2018-02-27T14:37:36.507Z,1.18
2018-02-27T14:40:06.493Z,1.08
2018-02-27T14:42:34.796Z,1.17
2018-02-27T14:45:06.044Z,1.03
2018-02-27T14:47:34.347Z,1.09
2018-02-27T14:50:06.481Z,1.17
2018-02-27T14:52:34.795Z,1.28
2018-02-27T14:55:07.136Z,1.14
2018-02-27T14:57:35.429Z,1.37
2018-02-27T15:00:06.969Z,1.32
2018-02-27T15:02:35.255Z,1.18
2018-02-27T15:05:07.153Z,1.23
2018-02-27T15:07:35.450Z,1.13
2018-02-27T15:10:07.497Z,1.26
2018-02-27T15:12:36.414Z,1.08
2018-02-27T15:15:06.012Z,0.94
2018-02-27T15:17:34.310Z,1.15
2018-02-27T15:20:08.291Z,1.12
2018-02-27T15:22:36.745Z,1.17
2018-02-27T15:25:06.465Z,1.06
2018-02-27T15:27:34.741Z,0.99
2018-02-27T15:30:05.976Z,0.84
2018-02-27T15:32:34.261Z,0.90
2018-02-27T15:35:05.744Z,0.96
2018-02-27T15:37:34.014Z,1.54
2018-02-27T15:40:05.455Z,2.14
2018-02-27T15:42:34.118Z,1.37
2018-02-27T15:45:05.598Z,1.04
2018-02-27T15:47:33.882Z,0.73
2018-02-27T15:50:05.176Z,0.88
2018-02-27T15:52:33.498Z,0.51
2018-02-27T15:55:08.323Z,0.49
2018-02-27T15:57:36.618Z,0.40
2018-02-27T16:00:06.130Z,0.37
2018-02-27T16:02:35.309Z,0.35
2018-02-27T16:05:06.812Z,0.34
2018-02-27T16:07:35.090Z,0.47
2018-02-27T16:10:06.510Z,0.34
2018-02-27T16:12:34.815Z,0.22
2018-02-27T16:15:06.012Z,0.15
2018-02-27T16:17:34.301Z,0.11
2018-02-27T16:20:06.440Z,-0.04
2018-02-27T16:22:34.733Z,-0.23
2018-02-27T16:25:06.444Z,-0.21
2018-02-27T16:27:38.748Z,-0.10
2018-02-27T16:30:07.022Z,-0.06
2018-02-27T16:32:35.987Z,-0.13
2018-02-27T16:35:07.320Z,-0.21
2018-02-27T16:37:35.596Z,-0.28
2018-02-27T16:40:06.928Z,-0.37
2018-02-27T16:42:35.225Z,-0.46
2018-02-27T16:45:06.949Z,-0.47
2018-02-27T16:47:35.254Z,-0.43
2018-02-27T16:50:06.617Z,-0.37
2018-02-27T16:52:35.274Z,-0.45
2018-02-27T16:55:06.913Z,-0.51
2018-02-27T16:57:35.482Z,-0.50
2018-02-27T17:00:07.319Z,-0.56
2018-02-27T17:02:35.547Z,-0.74
2018-02-27T17:05:06.873Z,-0.63
2018-02-27T17:07:35.413Z,-0.61
2018-02-27T17:10:07.435Z,-0.64
2018-02-27T17:12:36.243Z,-0.68
2018-02-27T17:15:05.984Z,-0.78
2018-02-27T17:17:34.617Z,-0.79
2018-02-27T17:20:05.823Z,-0.79
2018-02-27T17:22:34.098Z,-0.87
2018-02-27T17:25:06.146Z,-0.88
2018-02-27T17:27:34.453Z,-0.92
2018-02-27T17:30:05.893Z,-0.95
2018-02-27T17:32:34.780Z,-1.02
2018-02-27T17:35:06.038Z,-1.11
2018-02-27T17:37:34.347Z,-1.22
2018-02-27T17:40:08.551Z,-1.19
2018-02-27T17:42:36.870Z,-1.20
2018-02-27T17:45:06.372Z,-1.12
2018-02-27T17:47:34.842Z,-1.13
2018-02-27T17:50:06.078Z,-1.15
2018-02-27T17:52:34.390Z,-1.19
2018-02-27T17:55:07.413Z,-1.21
2018-02-27T17:57:36.181Z,-1.25
2018-02-27T18:00:08.022Z,-1.27
2018-02-27T18:02:36.340Z,-1.23
2018-02-27T18:05:06.033Z,-1.32
2018-02-27T18:07:34.345Z,-1.37
2018-02-27T18:10:09.309Z,-1.40
2018-02-27T18:12:37.578Z,-1.49
2018-02-27T18:15:05.950Z,-1.48
2018-02-27T18:17:34.584Z,-1.48
2018-02-27T18:20:06.781Z,-1.52
2018-02-27T18:22:35.088Z,-1.53
2018-02-27T18:25:06.741Z,-1.67
2018-02-27T18:27:35.041Z,-1.66
2018-02-27T18:30:07.109Z,-1.64
2018-02-27T18:32:35.380Z,-1.58
2018-02-27T18:35:07.438Z,-1.57
2018-02-27T18:37:35.750Z,-1.62
2018-02-27T18:40:07.292Z,-1.70
2018-02-27T18:42:35.600Z,-1.75
2018-02-27T18:45:07.130Z,-1.83
2018-02-27T18:47:35.385Z,-1.80
2018-02-27T18:50:07.526Z,-1.81
2018-02-27T18:52:35.825Z,-1.96
2018-02-27T18:55:07.044Z,-1.88
2018-02-27T18:57:35.353Z,-1.82
2018-02-27T19:00:06.767Z,-1.85
2018-02-27T19:02:35.060Z,-1.92
2018-02-27T19:05:06.978Z,-1.92
2018-02-27T19:07:35.293Z,-1.99
2018-02-27T19:10:06.628Z,-2.03
2018-02-27T19:12:34.909Z,-2.08
2018-02-27T19:15:07.061Z,-2.07
2018-02-27T19:17:35.370Z,-2.04
2018-02-27T19:20:06.054Z,-2.11
2018-02-27T19:22:34.370Z,-2.11
2018-02-27T19:25:09.518Z,-2.29
2018-02-27T19:27:37.818Z,-2.19
2018-02-27T19:30:06.132Z,-2.23
2018-02-27T19:32:34.432Z,-2.30
2018-02-27T19:35:09.502Z,-2.24
2018-02-27T19:37:38.187Z,-2.31
2018-02-27T19:40:06.486Z,-2.34
2018-02-27T19:42:34.782Z,-2.34
2018-02-27T19:45:06.258Z,-2.43
2018-02-27T19:47:38.876Z,-2.45
2018-02-27T19:50:07.190Z,-2.45
2018-02-27T19:52:35.469Z,-2.40
2018-02-27T19:55:07.042Z,-2.40
2018-02-27T19:57:35.392Z,-2.55
2018-02-27T20:00:07.513Z,-2.64
2018-02-27T20:02:35.888Z,-2.66
2018-02-27T20:05:06.071Z,-2.81
2018-02-27T20:07:38.099Z,-2.71
2018-02-27T20:10:06.411Z,-2.65
2018-02-27T20:12:34.694Z,-2.78
2018-02-27T20:15:06.043Z,-2.69
2018-02-27T20:17:34.318Z,-2.80
2018-02-27T20:20:05.995Z,-2.90
2018-02-27T20:22:39.731Z,-2.95
2018-02-27T20:25:08.398Z,-2.92
2018-02-27T20:27:36.671Z,-2.97
2018-02-27T20:30:06.125Z,-2.90
2018-02-27T20:32:34.434Z,-2.94
2018-02-27T20:35:09.494Z,-3.01
2018-02-27T20:37:37.806Z,-3.00
2018-02-27T20:40:06.260Z,-3.07
2018-02-27T20:42:34.600Z,-3.12
2018-02-27T20:45:06.724Z,-3.15
2018-02-27T20:47:35.029Z,-3.14
2018-02-27T20:50:06.959Z,-3.21
2018-02-27T20:52:35.256Z,-3.12
2018-02-27T20:55:06.695Z,-3.32
2018-02-27T20:57:35.009Z,-3.23
2018-02-27T21:00:07.034Z,-3.25
2018-02-27T21:02:35.329Z,-3.30
2018-02-27T21:05:07.279Z,-3.35
2018-02-27T21:07:35.859Z,-3.47
2018-02-27T21:10:07.940Z,-3.56
2018-02-27T21:12:37.000Z,-3.54
2018-02-27T21:15:07.226Z,-3.69
2018-02-27T21:17:35.537Z,-3.85
2018-02-27T21:20:07.425Z,-3.85
2018-02-27T21:22:35.741Z,-3.79
2018-02-27T21:25:07.683Z,-3.77
2018-02-27T21:27:36.002Z,-4.05
2018-02-27T21:30:07.937Z,-4.13
2018-02-27T21:32:36.482Z,-4.08
2018-02-27T21:35:06.650Z,-4.01
2018-02-27T21:37:34.926Z,-4.19
2018-02-27T21:40:06.263Z,-4.17
2018-02-27T21:42:34.561Z,-4.18
2018-02-27T21:45:06.319Z,-4.16
2018-02-27T21:47:34.597Z,-4.12
2018-02-27T21:50:06.135Z,-4.16
2018-02-27T21:52:34.670Z,-4.27
2018-02-27T21:55:06.240Z,-4.08
2018-02-27T21:57:35.147Z,-4.14
2018-02-27T22:00:07.092Z,-4.17
2018-02-27T22:02:35.671Z,-4.15
2018-02-27T22:05:07.314Z,-4.31
2018-02-27T22:07:36.566Z,-4.46
2018-02-27T22:10:06.625Z,-4.64
2018-02-27T22:12:34.913Z,-4.63
2018-02-27T22:15:06.828Z,-4.65
2018-02-27T22:17:35.151Z,-4.71
2018-02-27T22:20:07.574Z,-4.71
2018-02-27T22:22:35.865Z,-4.65
2018-02-27T22:25:07.563Z,-4.61
2018-02-27T22:27:35.867Z,-4.57
2018-02-27T22:30:07.092Z,-4.57
2018-02-27T22:32:35.410Z,-4.55
2018-02-27T22:35:07.538Z,-4.69
2018-02-27T22:37:35.845Z,-4.67
2018-02-27T22:40:08.001Z,-4.77
2018-02-27T22:42:36.365Z,-4.78
2018-02-27T22:45:07.160Z,-4.83
2018-02-27T22:47:35.473Z,-4.86
2018-02-27T22:50:06.512Z,-4.80
2018-02-27T22:52:34.831Z,-4.79
2018-02-27T22:55:08.800Z,-4.86
2018-02-27T22:57:37.191Z,-4.85
2018-02-27T23:00:06.242Z,-4.88
2018-02-27T23:02:34.528Z,-4.89
2018-02-27T23:05:09.681Z,-4.79
2018-02-27T23:07:37.957Z,-4.84
2018-02-27T23:10:06.241Z,-4.85
2018-02-27T23:12:34.951Z,-4.87
2018-02-27T23:15:06.468Z,-4.92
2018-02-27T23:17:34.745Z,-4.85
2018-02-27T23:20:08.675Z,-4.87
2018-02-27T23:22:36.969Z,-4.73
2018-02-27T23:25:13.164Z,-4.84
2018-02-27T23:27:43.001Z,-4.84
2018-02-27T23:30:12.379Z,-4.79
2018-02-27T23:32:45.289Z,-4.78
2018-02-27T23:35:19.909Z,-4.82
2018-02-27T23:37:48.198Z,-4.70
2018-02-27T23:40:16.489Z,-4.82
2018-02-27T23:42:44.791Z,-4.83
2018-02-27T23:45:13.130Z,-4.79
2018-02-27T23:47:41.490Z,-4.87
2018-02-27T23:50:09.773Z,-4.78
2018-02-27T23:52:38.440Z,-4.91
2018-02-27T23:55:06.724Z,-5.00
2018-02-27T23:57:35.029Z,-5.03
